Time;durP1;ratioP1;P1;durP2;ratioP2;P2;SDS_P1;SDS_P2;PMS_P1;PMS_P2;Temp;Humidity;BMP_temperature;BMP_pressure;BME280_temperature;BME280_humidity;BME280_pressure;Samples;Min_cycle;Max_cycle;Signal;HPM_P1;HPM_P2
2022/11/19 00:00:26;;;;;;;11.87;8.17;;;;;;;;;;5018702;28;20067;-78
2022/11/19 00:02:55;;;;;;;10.87;7.87;;;;;;;;;;5031759;28;20026;-78
2022/11/19 00:05:21;;;;;;;16.97;9.17;;;;;;;;;;5031607;28;20065;-78
2022/11/19 00:07:47;;;;;;;12.10;8.07;;;;;;;;;;5017891;28;20060;-78
2022/11/19 00:10:13;;;;;;;14.23;8.70;;;;;;;;;;5017776;28;20040;-77
2022/11/19 00:12:54;;;;;;;17.50;8.50;;;;;;;;;;5030796;28;20754;-78
2022/11/19 00:15:20;;;;;;;14.30;8.73;;;;;;;;;;5029168;28;20040;-77
2022/11/19 00:17:46;;;;;;;14.83;9.37;;;;;;;;;;5017058;28;20022;-78
2022/11/19 00:20:13;;;;;;;15.63;9.60;;;;;;;;;;5028341;28;20033;-77
2022/11/19 00:22:42;;;;;;;17.40;9.40;;;;;;;;;;5017575;28;20033;-77
2022/11/19 00:25:08;;;;;;;15.00;8.63;;;;;;;;;;5017874;28;20054;-78
2022/11/19 00:27:34;;;;;;;15.03;8.87;;;;;;;;;;5020363;28;20044;-78
2022/11/19 00:30:00;;;;;;;15.30;9.20;;;;;;;;;;5032079;28;21629;-77
2022/11/19 00:32:29;;;;;;;16.10;9.60;;;;;;;;;;5016110;28;20129;-77
2022/11/19 00:34:55;;;;;;;14.00;9.40;;;;;;;;;;5017128;28;20037;-77
2022/11/19 00:37:21;;;;;;;16.47;9.87;;;;;;;;;;5030599;28;20029;-77
2022/11/19 00:39:47;;;;;;;16.87;9.40;;;;;;;;;;5020158;28;20370;-78
2022/11/19 00:42:13;;;;;;;12.37;8.73;;;;;;;;;;5018783;28;20033;-77
2022/11/19 00:44:39;;;;;;;16.70;9.83;;;;;;;;;;5019008;28;20025;-78
2022/11/19 00:47:05;;;;;;;16.47;9.80;;;;;;;;;;5013959;28;20931;-77
2022/11/19 00:49:31;;;;;;;16.13;9.60;;;;;;;;;;5026598;28;20141;-78
2022/11/19 00:51:57;;;;;;;16.90;10.40;;;;;;;;;;5014772;28;20029;-78
2022/11/19 00:54:23;;;;;;;17.43;9.90;;;;;;;;;;5019996;28;20040;-78
2022/11/19 00:56:49;;;;;;;18.23;10.80;;;;;;;;;;5018727;28;20037;-78
2022/11/19 00:59:15;;;;;;;18.67;10.43;;;;;;;;;;5021208;28;20022;-78
2022/11/19 01:01:41;;;;;;;18.40;11.23;;;;;;;;;;5029532;28;20450;-78
2022/11/19 01:04:07;;;;;;;18.67;12.13;;;;;;;;;;5021014;28;20045;-78
2022/11/19 01:06:33;;;;;;;18.03;11.20;;;;;;;;;;5018908;28;20022;-78
2022/11/19 01:08:59;;;;;;;16.03;10.17;;;;;;;;;;5018054;28;20029;-77
2022/11/19 01:11:27;;;;;;;17.23;10.17;;;;;;;;;;5016544;28;20030;-78
2022/11/19 01:13:53;;;;;;;19.30;11.13;;;;;;;;;;5019816;28;20545;-77
2022/11/19 01:16:23;;;;;;;18.70;11.70;;;;;;;;;;5023376;28;20030;-78
2022/11/19 01:18:49;;;;;;;18.00;11.50;;;;;;;;;;5031825;28;20048;-78
2022/11/19 01:21:16;;;;;;;15.97;10.67;;;;;;;;;;5031113;28;20474;-77
2022/11/19 01:23:47;;;;;;;17.47;11.30;;;;;;;;;;5023972;28;20029;-78
2022/11/19 01:26:14;;;;;;;18.77;12.30;;;;;;;;;;5023118;28;20026;-77
2022/11/19 01:28:42;;;;;;;19.30;11.73;;;;;;;;;;5019880;28;20034;-78
2022/11/19 01:31:10;;;;;;;15.63;10.77;;;;;;;;;;5024024;28;20088;-78
2022/11/19 01:33:36;;;;;;;21.27;11.53;;;;;;;;;;5016163;28;20450;-79
2022/11/19 01:36:04;;;;;;;16.13;11.33;;;;;;;;;;5019781;28;20103;-78
2022/11/19 01:38:30;;;;;;;18.37;11.90;;;;;;;;;;5022131;28;20034;-79
2022/11/19 01:40:57;;;;;;;18.23;11.23;;;;;;;;;;5022228;28;20056;-78
2022/11/19 01:43:44;;;;;;;18.53;12.03;;;;;;;;;;5025411;28;20079;-78
2022/11/19 01:46:11;;;;;;;16.37;10.60;;;;;;;;;;5023214;28;20030;-77
2022/11/19 01:48:40;;;;;;;19.77;12.37;;;;;;;;;;5031016;28;20061;-77
2022/11/19 01:51:11;;;;;;;22.30;13.10;;;;;;;;;;5022222;28;20117;-78
2022/11/19 01:53:38;;;;;;;20.10;12.77;;;;;;;;;;5018631;28;20076;-78
2022/11/19 01:56:05;;;;;;;18.03;12.53;;;;;;;;;;5034030;28;20034;-78
2022/11/19 01:58:33;;;;;;;22.10;12.40;;;;;;;;;;5034638;28;20591;-78
2022/11/19 02:00:59;;;;;;;21.47;12.43;;;;;;;;;;5034674;28;20025;-78
2022/11/19 02:03:27;;;;;;;23.33;13.57;;;;;;;;;;5019123;28;20103;-78
2022/11/19 02:05:53;;;;;;;16.90;12.40;;;;;;;;;;5039383;28;20033;-78
2022/11/19 02:08:37;;;;;;;19.63;13.43;;;;;;;;;;5025640;28;20052;-78
2022/11/19 02:11:22;;;;;;;20.93;13.23;;;;;;;;;;5018866;28;20042;-78
2022/11/19 02:13:55;;;;;;;19.87;12.90;;;;;;;;;;5037171;28;20096;-78
2022/11/19 02:16:21;;;;;;;;;;;;;;;;;;5035454;28;20029;-78
2022/11/19 02:19:11;;;;;;;19.50;13.10;;;;;;;;;;5022768;28;19971;-77
2022/11/19 02:21:40;;;;;;;17.43;13.00;;;;;;;;;;5033212;28;20108;-78
2022/11/19 02:24:06;;;;;;;26.43;14.77;;;;;;;;;;5032639;28;20022;-77
2022/11/19 02:26:32;;;;;;;26.10;15.20;;;;;;;;;;5033277;28;20034;-77
2022/11/19 02:29:04;;;;;;;26.37;15.23;;;;;;;;;;5034245;28;20030;-77
2022/11/19 02:31:39;;;;;;;23.70;14.75;;;;;;;;;;5035918;28;20137;-78
2022/11/19 02:34:08;;;;;;;24.07;15.20;;;;;;;;;;5033996;28;20281;-78
2022/11/19 02:36:38;;;;;;;27.30;16.17;;;;;;;;;;5030800;28;20037;-78
2022/11/19 02:39:20;;;;;;;22.13;13.93;;;;;;;;;;5034472;28;20031;-77
2022/11/19 02:42:03;;;;;;;24.40;14.83;;;;;;;;;;5036112;28;20022;-78
2022/11/19 02:47:16;;;;;;;23.73;14.07;;;;;;;;;;5020973;28;20132;-78
2022/11/19 02:49:44;;;;;;;18.23;13.43;;;;;;;;;;5024152;28;20068;-78
2022/11/19 02:52:13;;;;;;;24.10;15.43;;;;;;;;;;5037024;28;20103;-78
2022/11/19 02:54:40;;;;;;;21.53;14.20;;;;;;;;;;5022151;28;20037;-78
2022/11/19 02:57:06;;;;;;;25.60;15.70;;;;;;;;;;5019900;28;20026;-78
2022/11/19 03:05:33;;;;;;;23.00;14.23;;;;;;;;;;5024612;28;20099;-77
2022/11/19 03:07:59;;;;;;;17.97;11.90;;;;;;;;;;5021262;28;20052;-78
2022/11/19 03:10:31;;;;;;;17.07;10.23;;;;;;;;;;5023803;28;20026;-78
2022/11/19 03:19:04;;;;;;;15.03;9.30;;;;;;;;;;5023017;28;20048;-78
2022/11/19 03:21:37;;;;;;;10.10;7.63;;;;;;;;;;5022006;28;20022;-78
2022/11/19 03:24:10;;;;;;;7.87;6.53;;;;;;;;;;5030583;28;20323;-78
2022/11/19 03:26:38;;;;;;;7.13;5.72;;;;;;;;;;5032427;28;20036;-78
2022/11/19 03:29:07;;;;;;;8.43;6.80;;;;;;;;;;5019810;28;20021;-79
2022/11/19 03:31:34;;;;;;;6.83;5.50;;;;;;;;;;5030794;28;20128;-77
2022/11/19 03:34:05;;;;;;;5.47;4.43;;;;;;;;;;5030315;28;20038;-77
2022/11/19 03:36:34;;;;;;;4.87;3.90;;;;;;;;;;5031710;28;20092;-78
2022/11/19 03:39:03;;;;;;;4.03;3.20;;;;;;;;;;5034506;28;20100;-78
2022/11/19 03:41:33;;;;;;;5.27;3.90;;;;;;;;;;5020667;28;20084;-77
2022/11/19 03:44:06;;;;;;;12.33;3.50;;;;;;;;;;5032414;28;20139;-79
2022/11/19 03:46:34;;;;;;;6.10;3.77;;;;;;;;;;5019211;28;20069;-78
2022/11/19 03:49:01;;;;;;;3.83;3.30;;;;;;;;;;5022576;28;20049;-79
2022/11/19 03:51:33;;;;;;;6.03;3.53;;;;;;;;;;5019525;28;20044;-75
2022/11/19 03:53:59;;;;;;;4.75;3.10;;;;;;;;;;5029399;28;20477;-78
2022/11/19 03:56:27;;;;;;;4.33;3.30;;;;;;;;;;5020722;28;20029;-77
2022/11/19 03:58:53;;;;;;;3.30;2.93;;;;;;;;;;5020465;28;20041;-77
2022/11/19 04:01:19;;;;;;;4.77;3.47;;;;;;;;;;5020536;28;20035;-78
2022/11/19 04:04:34;;;;;;;4.37;3.40;;;;;;;;;;5035075;28;20103;-77
2022/11/19 04:06:31;;;;;;;5.87;3.20;;;;;;;;;;5018505;28;20459;-76
2022/11/19 04:08:57;;;;;;;4.77;3.53;;;;;;;;;;5015599;28;20040;-78
2022/11/19 04:11:24;;;;;;;3.40;2.50;;;;;;;;;;5020488;28;20025;-77
2022/11/19 04:13:50;;;;;;;8.50;1.80;;;;;;;;;;5019527;28;20118;-77
2022/11/19 04:16:16;;;;;;;2.77;1.47;;;;;;;;;;5014951;28;20057;-77
2022/11/19 04:18:44;;;;;;;2.10;1.10;;;;;;;;;;5016611;28;20025;-77
2022/11/19 04:21:10;;;;;;;2.30;1.13;;;;;;;;;;5017088;28;20029;-77
2022/11/19 04:23:36;;;;;;;1.30;1.00;;;;;;;;;;5034133;28;20392;-77
2022/11/19 04:26:02;;;;;;;2.60;1.00;;;;;;;;;;5020781;28;20035;-77
2022/11/19 04:28:28;;;;;;;3.17;1.10;;;;;;;;;;5020476;28;20041;-78
2022/11/19 04:30:54;;;;;;;1.90;1.50;;;;;;;;;;5015649;28;20103;-77
2022/11/19 04:33:22;;;;;;;2.20;1.60;;;;;;;;;;5015750;28;21763;-77
2022/11/19 04:35:48;;;;;;;2.47;1.90;;;;;;;;;;5018139;28;20912;-77
2022/11/19 04:38:14;;;;;;;2.77;1.77;;;;;;;;;;5030315;28;20038;-77
2022/11/19 04:40:41;;;;;;;2.07;1.20;;;;;;;;;;5018578;28;20036;-77
2022/11/19 04:43:09;;;;;;;3.17;2.17;;;;;;;;;;5018785;28;20021;-78
2022/11/19 04:45:35;;;;;;;2.93;2.03;;;;;;;;;;5020237;28;20450;-77
2022/11/19 04:48:01;;;;;;;4.70;2.40;;;;;;;;;;5037012;28;20092;-77
2022/11/19 04:50:27;;;;;;;2.57;1.80;;;;;;;;;;5023953;28;20042;-77
2022/11/19 04:52:53;;;;;;;3.10;2.00;;;;;;;;;;5023849;28;20034;-77
2022/11/19 04:55:19;;;;;;;5.07;3.37;;;;;;;;;;5031479;28;20370;-76
2022/11/19 04:57:45;;;;;;;7.87;4.57;;;;;;;;;;5022264;28;20036;-77
2022/11/19 05:00:12;;;;;;;2.63;1.90;;;;;;;;;;5018860;28;20018;-77
2022/11/19 05:02:38;;;;;;;2.47;1.97;;;;;;;;;;5033890;28;20030;-77
2022/11/19 05:05:04;;;;;;;5.33;2.87;;;;;;;;;;5030009;28;20039;-77
2022/11/19 05:07:30;;;;;;;2.17;1.90;;;;;;;;;;5047143;28;20434;-78
2022/11/19 05:09:56;;;;;;;3.00;2.40;;;;;;;;;;5023667;28;20025;-77
2022/11/19 05:12:22;;;;;;;3.37;2.37;;;;;;;;;;5039342;28;20465;-77
2022/11/19 05:14:48;;;;;;;3.33;2.63;;;;;;;;;;5022974;28;20040;-77
2022/11/19 05:17:14;;;;;;;3.73;2.80;;;;;;;;;;5025710;28;20033;-77
2022/11/19 05:19:43;;;;;;;4.77;3.23;;;;;;;;;;5025248;28;20025;-77
2022/11/19 05:22:09;;;;;;;7.27;2.77;;;;;;;;;;5023102;28;20038;-77
2022/11/19 05:24:35;;;;;;;9.13;5.33;;;;;;;;;;5025103;28;20129;-77
2022/11/19 05:27:01;;;;;;;6.73;4.33;;;;;;;;;;5019556;28;20073;-77
2022/11/19 05:29:27;;;;;;;7.33;5.20;;;;;;;;;;5028035;28;20036;-77
2022/11/19 05:31:53;;;;;;;5.13;3.87;;;;;;;;;;5025717;28;20048;-77
2022/11/19 05:34:19;;;;;;;8.57;4.50;;;;;;;;;;5021293;28;20026;-77
2022/11/19 05:36:47;;;;;;;5.30;4.00;;;;;;;;;;5024743;28;20029;-77
2022/11/19 05:39:13;;;;;;;8.83;4.93;;;;;;;;;;5030925;28;20442;-78
2022/11/19 05:41:39;;;;;;;6.97;4.70;;;;;;;;;;5021687;28;20025;-78
2022/11/19 05:44:05;;;;;;;10.73;4.53;;;;;;;;;;5022687;28;20051;-77
2022/11/19 05:46:32;;;;;;;7.70;4.63;;;;;;;;;;5022539;28;20033;-77
2022/11/19 05:48:58;;;;;;;8.03;5.07;;;;;;;;;;5019703;28;20473;-76
2022/11/19 05:51:24;;;;;;;7.60;5.80;;;;;;;;;;5021575;28;20041;-77
2022/11/19 05:53:50;;;;;;;8.30;5.90;;;;;;;;;;5019139;28;20370;-78
2022/11/19 05:56:16;;;;;;;9.03;6.37;;;;;;;;;;5018424;28;20450;-77
2022/11/19 05:58:42;;;;;;;8.23;6.50;;;;;;;;;;5019789;28;20026;-77
2022/11/19 06:01:08;;;;;;;9.70;7.00;;;;;;;;;;5018914;28;20037;-77
2022/11/19 06:03:34;;;;;;;11.67;8.30;;;;;;;;;;5019582;28;20037;-78
2022/11/19 06:06:00;;;;;;;11.93;8.20;;;;;;;;;;5024438;28;20034;-77
2022/11/19 06:08:26;;;;;;;10.87;7.60;;;;;;;;;;5020238;28;20029;-78
2022/11/19 06:10:52;;;;;;;9.90;7.53;;;;;;;;;;5021820;28;20030;-76
2022/11/19 06:13:18;;;;;;;8.50;6.53;;;;;;;;;;5020595;28;20037;-77
2022/11/19 06:15:44;;;;;;;11.80;8.83;;;;;;;;;;5036463;28;20056;-77
2022/11/19 06:18:10;;;;;;;14.50;9.27;;;;;;;;;;5025589;28;20021;-76
2022/11/19 06:20:36;;;;;;;14.97;9.60;;;;;;;;;;5032998;28;20063;-78
2022/11/19 06:23:02;;;;;;;13.77;9.17;;;;;;;;;;5020407;28;20052;-77
2022/11/19 06:25:28;;;;;;;17.17;11.40;;;;;;;;;;5030753;28;20394;-78
2022/11/19 06:27:54;;;;;;;15.30;10.73;;;;;;;;;;5023320;28;20454;-78
2022/11/19 06:30:20;;;;;;;15.33;10.67;;;;;;;;;;5018439;28;20026;-76
2022/11/19 06:32:46;;;;;;;16.97;11.60;;;;;;;;;;5022560;28;20029;-77
2022/11/19 06:35:12;;;;;;;19.53;12.13;;;;;;;;;;5032650;28;20453;-77
2022/11/19 06:37:38;;;;;;;18.53;12.63;;;;;;;;;;5021339;28;20374;-77
2022/11/19 06:40:04;;;;;;;17.73;11.90;;;;;;;;;;5020626;28;20041;-77
2022/11/19 06:42:36;;;;;;;20.10;12.73;;;;;;;;;;5019827;28;20025;-76
2022/11/19 06:45:03;;;;;;;20.80;14.32;;;;;;;;;;5018860;28;20449;-76
2022/11/19 06:47:30;;;;;;;19.53;12.97;;;;;;;;;;5017801;28;20034;-78
2022/11/19 06:49:56;;;;;;;20.83;14.50;;;;;;;;;;5031641;28;20026;-77
2022/11/19 06:52:22;;;;;;;20.07;13.87;;;;;;;;;;5022736;28;20033;-77
2022/11/19 06:54:48;;;;;;;22.13;14.97;;;;;;;;;;5020174;28;20805;-78
2022/11/19 06:57:14;;;;;;;23.47;15.77;;;;;;;;;;5019915;28;20555;-77
2022/11/19 06:59:40;;;;;;;21.57;14.43;;;;;;;;;;5019841;28;20029;-77
2022/11/19 07:02:09;;;;;;;21.20;13.90;;;;;;;;;;5019393;28;20033;-77
2022/11/19 07:04:35;;;;;;;24.17;15.30;;;;;;;;;;5036703;28;20043;-77
2022/11/19 07:07:01;;;;;;;23.77;15.93;;;;;;;;;;5022688;28;20509;-78
2022/11/19 07:09:50;;;;;;;22.83;15.17;;;;;;;;;;5020158;28;20022;-78
2022/11/19 07:12:19;;;;;;;24.47;16.50;;;;;;;;;;5018305;28;20033;-77
2022/11/19 07:14:45;;;;;;;26.20;16.80;;;;;;;;;;5020060;28;20358;-78
2022/11/19 07:17:11;;;;;;;24.87;16.50;;;;;;;;;;5038680;28;20422;-77
2022/11/19 07:19:37;;;;;;;20.00;14.47;;;;;;;;;;5021885;28;20084;-77
2022/11/19 07:22:03;;;;;;;22.27;15.87;;;;;;;;;;5019208;28;20038;-77
2022/11/19 07:24:29;;;;;;;24.03;15.33;;;;;;;;;;5017851;28;20030;-77
2022/11/19 07:26:55;;;;;;;22.67;15.33;;;;;;;;;;5017270;28;20030;-77
2022/11/19 07:29:21;;;;;;;19.07;13.87;;;;;;;;;;5020633;28;20060;-78
2022/11/19 07:31:49;;;;;;;23.27;15.67;;;;;;;;;;5021198;28;20029;-77
2022/11/19 07:34:15;;;;;;;23.70;16.53;;;;;;;;;;5033162;28;20040;-78
2022/11/19 07:36:44;;;;;;;22.33;15.97;;;;;;;;;;5030433;28;20029;-77
2022/11/19 07:39:10;;;;;;;25.47;16.47;;;;;;;;;;5029639;28;20022;-77
2022/11/19 07:44:21;;;;;;;27.63;18.10;;;;;;;;;;5022211;28;20081;-77
2022/11/19 07:46:49;;;;;;;23.50;16.30;;;;;;;;;;5020682;28;20029;-78
2022/11/19 07:49:17;;;;;;;27.20;17.90;;;;;;;;;;5021132;28;20196;-77
2022/11/19 07:51:43;;;;;;;23.40;16.00;;;;;;;;;;5019015;28;20025;-78
2022/11/19 07:54:13;;;;;;;23.10;15.33;;;;;;;;;;5018257;28;20029;-78
2022/11/19 07:56:39;;;;;;;23.10;16.60;;;;;;;;;;5033097;28;20442;-76
2022/11/19 07:59:06;;;;;;;23.70;16.73;;;;;;;;;;5018878;28;20036;-77
2022/11/19 08:01:32;;;;;;;24.07;16.73;;;;;;;;;;5034252;28;20050;-77
2022/11/19 08:03:59;;;;;;;25.03;17.27;;;;;;;;;;5029902;28;20072;-77
2022/11/19 08:06:25;;;;;;;26.77;17.50;;;;;;;;;;5027647;28;20044;-78
2022/11/19 08:08:51;;;;;;;23.27;15.97;;;;;;;;;;5021733;28;20072;-77
2022/11/19 08:11:17;;;;;;;25.27;16.13;;;;;;;;;;5017638;28;20061;-78
2022/11/19 08:13:44;;;;;;;26.77;17.33;;;;;;;;;;5021745;28;20120;-77
2022/11/19 08:16:11;;;;;;;26.27;16.97;;;;;;;;;;5017961;28;20505;-77
2022/11/19 08:18:37;;;;;;;25.03;16.20;;;;;;;;;;5031588;28;20029;-77
2022/11/19 08:21:10;;;;;;;24.03;15.70;;;;;;;;;;5019648;28;20033;-75
2022/11/19 08:23:36;;;;;;;;;;;;;;;;;;5019552;28;20069;-78
2022/11/19 08:26:03;;;;;;;25.03;17.57;;;;;;;;;;5017173;28;20082;-77
2022/11/19 08:28:31;;;;;;;23.47;16.30;;;;;;;;;;5028634;28;20354;-77
2022/11/19 08:31:04;;;;;;;23.30;16.03;;;;;;;;;;5014727;28;20040;-76
2022/11/19 08:33:32;;;;;;;21.90;15.70;;;;;;;;;;5019972;28;20114;-76
2022/11/19 08:35:58;;;;;;;27.50;18.60;;;;;;;;;;5031156;28;20033;-76
2022/11/19 08:38:24;;;;;;;25.33;17.17;;;;;;;;;;5019126;28;20022;-77
2022/11/19 08:40:52;;;;;;;27.43;18.97;;;;;;;;;;5019209;28;20041;-76
2022/11/19 08:43:18;;;;;;;24.13;16.00;;;;;;;;;;5016139;28;20055;-77
2022/11/19 08:45:49;;;;;;;24.67;17.80;;;;;;;;;;5021212;28;20473;-77
2022/11/19 08:48:15;;;;;;;22.67;15.97;;;;;;;;;;5018818;28;20030;-78
2022/11/19 08:50:41;;;;;;;21.77;15.23;;;;;;;;;;5016648;28;20057;-77
2022/11/19 08:53:07;;;;;;;23.53;17.33;;;;;;;;;;5018256;28;20030;-77
2022/11/19 08:55:35;;;;;;;22.87;15.60;;;;;;;;;;5017413;28;21616;-78
2022/11/19 08:58:02;;;;;;;20.90;15.20;;;;;;;;;;5019092;28;20041;-77
2022/11/19 09:00:29;;;;;;;25.10;16.00;;;;;;;;;;5036539;28;20029;-76
2022/11/19 09:02:55;;;;;;;23.53;15.60;;;;;;;;;;5016763;28;20037;-77
2022/11/19 09:05:21;;;;;;;22.17;15.93;;;;;;;;;;5021155;28;20091;-77
2022/11/19 09:07:49;;;;;;;20.53;14.53;;;;;;;;;;5018931;28;20053;-77
2022/11/19 09:10:16;;;;;;;20.47;13.93;;;;;;;;;;5030663;28;20434;-77
2022/11/19 09:12:42;;;;;;;20.17;14.40;;;;;;;;;;5019658;28;20438;-77
2022/11/19 09:15:11;;;;;;;19.97;14.60;;;;;;;;;;5021473;28;20037;-76
2022/11/19 09:17:37;;;;;;;22.47;15.03;;;;;;;;;;5019291;28;20026;-77
2022/11/19 09:20:03;;;;;;;21.17;14.23;;;;;;;;;;5016046;28;20052;-78
2022/11/19 09:22:30;;;;;;;19.93;13.90;;;;;;;;;;5029936;28;20033;-77
2022/11/19 09:24:56;;;;;;;21.40;14.67;;;;;;;;;;5034379;28;20044;-78
2022/11/19 09:27:22;;;;;;;21.50;14.47;;;;;;;;;;5017219;28;20029;-78
2022/11/19 09:29:48;;;;;;;21.83;14.33;;;;;;;;;;5019550;28;20040;-77
2022/11/19 09:32:14;;;;;;;22.17;13.70;;;;;;;;;;5033368;28;20963;-77
2022/11/19 09:34:40;;;;;;;22.27;14.53;;;;;;;;;;5024253;28;20112;-77
2022/11/19 09:37:12;;;;;;;19.70;13.10;;;;;;;;;;5022128;28;20034;-77
2022/11/19 09:39:38;;;;;;;17.70;12.43;;;;;;;;;;5036490;28;20037;-77
2022/11/19 09:42:15;;;;;;;15.93;11.87;;;;;;;;;;5020450;28;20037;-77
2022/11/19 09:44:41;;;;;;;19.37;12.17;;;;;;;;;;5020842;28;20056;-77
2022/11/19 09:47:22;;;;;;;20.97;13.13;;;;;;;;;;5034702;28;20029;-77
2022/11/19 09:49:51;;;;;;;17.70;12.03;;;;;;;;;;5022076;28;20126;-77
2022/11/19 09:52:19;;;;;;;22.63;12.53;;;;;;;;;;5032230;28;20105;-77
2022/11/19 09:54:50;;;;;;;17.60;12.23;;;;;;;;;;5020202;28;20935;-77
2022/11/19 09:57:21;;;;;;;20.80;13.17;;;;;;;;;;5027619;28;20061;-77
2022/11/19 09:59:47;;;;;;;17.23;11.87;;;;;;;;;;5022189;28;20393;-77
2022/11/19 10:02:16;;;;;;;17.80;12.50;;;;;;;;;;5034896;28;20041;-77
2022/11/19 10:04:43;;;;;;;17.47;12.60;;;;;;;;;;5028882;28;20040;-78
2022/11/19 10:07:24;;;;;;;18.50;12.77;;;;;;;;;;5022782;28;20026;-77
2022/11/19 10:09:54;;;;;;;19.27;13.40;;;;;;;;;;5030356;28;20029;-75
2022/11/19 10:12:28;;;;;;;16.47;12.37;;;;;;;;;;5021867;28;20079;-76
2022/11/19 10:14:54;;;;;;;15.50;11.67;;;;;;;;;;5019365;28;20072;-77
2022/11/19 10:17:20;;;;;;;20.90;12.90;;;;;;;;;;5020993;28;20488;-77
2022/11/19 10:19:46;;;;;;;18.07;12.10;;;;;;;;;;5032045;28;20046;-77
2022/11/19 10:22:16;;;;;;;20.13;13.67;;;;;;;;;;5020395;28;20030;-78
2022/11/19 10:24:52;;;;;;;17.47;11.33;;;;;;;;;;5018426;28;20493;-77
2022/11/19 10:27:31;;;;;;;18.93;11.57;;;;;;;;;;5034078;28;20117;-78
2022/11/19 10:29:58;;;;;;;18.77;12.43;;;;;;;;;;5031079;28;20022;-77
2022/11/19 10:32:43;;;;;;;18.00;12.57;;;;;;;;;;5021098;28;20029;-76
2022/11/19 10:35:18;;;;;;;17.17;11.83;;;;;;;;;;5020596;28;20041;-77
2022/11/19 10:38:06;;;;;;;17.70;11.50;;;;;;;;;;5020737;28;20026;-78
2022/11/19 10:40:41;;;;;;;16.10;11.30;;;;;;;;;;5031283;28;20413;-76
2022/11/19 10:43:13;;;;;;;19.03;13.00;;;;;;;;;;5030397;28;20030;-78
2022/11/19 10:45:39;;;;;;;18.60;12.05;;;;;;;;;;5030005;28;20041;-76
2022/11/19 10:48:19;;;;;;;17.27;12.07;;;;;;;;;;5031071;28;20033;-78
2022/11/19 10:50:45;;;;;;;19.83;12.33;;;;;;;;;;5022168;28;20072;-76
2022/11/19 10:53:25;;;;;;;18.83;12.17;;;;;;;;;;5029394;28;20041;-78
2022/11/19 10:56:14;;;;;;;18.67;12.40;;;;;;;;;;5032579;28;20038;-77
2022/11/19 10:58:44;;;;;;;15.63;10.37;;;;;;;;;;5023776;28;20036;-77
2022/11/19 11:01:19;;;;;;;16.83;11.97;;;;;;;;;;5031518;28;20025;-77
2022/11/19 11:03:47;;;;;;;17.33;11.33;;;;;;;;;;5030432;28;20037;-78
2022/11/19 11:06:13;;;;;;;18.73;12.20;;;;;;;;;;5021790;28;20101;-76
2022/11/19 11:08:50;;;;;;;15.77;10.73;;;;;;;;;;5017557;28;20117;-77
2022/11/19 11:17:01;;;;;;;15.50;10.37;;;;;;;;;;5018686;28;20041;-77
2022/11/19 11:19:29;;;;;;;18.73;11.40;;;;;;;;;;5019027;28;20386;-77
2022/11/19 11:21:56;;;;;;;14.57;10.20;;;;;;;;;;5017856;28;20651;-77
2022/11/19 11:24:30;;;;;;;14.83;10.80;;;;;;;;;;5018930;28;20021;-77
2022/11/19 11:27:16;;;;;;;14.70;9.97;;;;;;;;;;5016970;28;20037;-76
2022/11/19 11:29:42;;;;;;;15.43;10.23;;;;;;;;;;5020372;28;20030;-77
2022/11/19 11:32:25;;;;;;;12.20;8.83;;;;;;;;;;5020067;28;20042;-76
2022/11/19 11:34:51;;;;;;;16.30;10.23;;;;;;;;;;5019228;28;20103;-77
2022/11/19 11:37:17;;;;;;;14.23;9.87;;;;;;;;;;5017696;28;20748;-78
2022/11/19 11:39:43;;;;;;;16.07;9.90;;;;;;;;;;5032633;28;21720;-77
2022/11/19 11:42:11;;;;;;;15.47;10.97;;;;;;;;;;5028262;28;20465;-77
2022/11/19 11:44:39;;;;;;;15.87;10.00;;;;;;;;;;5021043;28;20034;-77
2022/11/19 11:47:16;;;;;;;15.87;10.23;;;;;;;;;;5030235;28;20029;-76
2022/11/19 11:49:46;;;;;;;16.37;9.77;;;;;;;;;;5019909;28;20064;-77
2022/11/19 11:52:17;;;;;;;14.30;9.37;;;;;;;;;;5016097;28;20064;-77
2022/11/19 11:54:57;;;;;;;15.30;10.47;;;;;;;;;;5019292;28;20041;-77
2022/11/19 11:57:23;;;;;;;12.17;9.03;;;;;;;;;;5028139;28;20079;-78
2022/11/19 11:59:51;;;;;;;14.40;9.33;;;;;;;;;;5014977;28;20466;-77
2022/11/19 12:02:25;;;;;;;13.17;8.67;;;;;;;;;;5016585;28;20030;-77
2022/11/19 12:04:53;;;;;;;15.53;10.30;;;;;;;;;;5029498;28;20446;-76
2022/11/19 12:07:25;;;;;;;12.83;9.37;;;;;;;;;;5020587;28;20033;-77
2022/11/19 12:10:17;;;;;;;15.45;9.02;;;;;;;;;;5028600;28;20033;-78
2022/11/19 12:12:49;;;;;;;13.75;9.35;;;;;;;;;;5008025;28;20033;-75
2022/11/19 12:15:20;;;;;;;16.53;9.73;;;;;;;;;;5030536;28;20104;-78
2022/11/19 12:18:05;;;;;;;14.37;8.53;;;;;;;;;;5016247;28;20057;-77
2022/11/19 12:20:31;;;;;;;13.43;8.97;;;;;;;;;;5027821;28;20033;-77
2022/11/19 12:23:16;;;;;;;13.60;9.03;;;;;;;;;;5018095;28;20025;-76
2022/11/19 12:26:00;;;;;;;12.87;8.47;;;;;;;;;;5027158;28;20037;-77
2022/11/19 12:28:29;;;;;;;14.23;9.47;;;;;;;;;;5029075;28;20030;-77
2022/11/19 12:31:08;;;;;;;12.37;8.50;;;;;;;;;;5030597;28;20034;-77
2022/11/19 12:33:37;;;;;;;13.33;9.20;;;;;;;;;;5029903;28;20025;-77
2022/11/19 12:36:24;;;;;;;13.50;9.23;;;;;;;;;;5017794;28;20375;-77
2022/11/19 12:39:09;;;;;;;13.87;9.63;;;;;;;;;;5029771;28;20022;-78
2022/11/19 12:41:47;;;;;;;17.33;11.50;;;;;;;;;;5014852;28;20188;-77
2022/11/19 12:44:16;;;;;;;12.73;8.77;;;;;;;;;;5016910;28;20052;-78
2022/11/19 12:46:42;;;;;;;14.67;10.07;;;;;;;;;;5018011;28;20505;-77
2022/11/19 12:49:27;;;;;;;13.03;9.10;;;;;;;;;;5014484;28;20030;-76
2022/11/19 12:51:57;;;;;;;14.40;9.07;;;;;;;;;;5012971;28;20064;-77
2022/11/19 12:54:49;;;;;;;15.87;10.43;;;;;;;;;;5029921;28;20052;-77
2022/11/19 12:57:15;;;;;;;14.10;9.53;;;;;;;;;;5014668;28;20549;-76
2022/11/19 13:00:00;;;;;;;15.50;10.23;;;;;;;;;;5014502;28;20026;-77
2022/11/19 13:02:48;;;;;;;19.57;9.67;;;;;;;;;;5026552;28;20030;-77
2022/11/19 13:05:33;;;;;;;15.03;10.13;;;;;;;;;;5024772;28;20482;-77
2022/11/19 13:08:19;;;;;;;18.13;10.40;;;;;;;;;;5018267;28;20076;-77
2022/11/19 13:10:47;;;;;;;17.50;11.17;;;;;;;;;;5020279;28;20040;-76
2022/11/19 13:13:15;;;;;;;16.20;10.90;;;;;;;;;;5021895;28;20030;-77
2022/11/19 13:15:46;;;;;;;14.77;10.27;;;;;;;;;;5019488;28;20061;-77
2022/11/19 13:18:15;;;;;;;16.20;10.10;;;;;;;;;;5029660;28;20038;-77
2022/11/19 13:20:49;;;;;;;13.93;9.73;;;;;;;;;;5018306;28;20021;-77
2022/11/19 13:23:20;;;;;;;16.37;10.50;;;;;;;;;;5030439;28;20033;-77
2022/11/19 13:25:51;;;;;;;15.53;10.87;;;;;;;;;;5020478;28;20036;-78
2022/11/19 13:28:21;;;;;;;17.43;10.53;;;;;;;;;;5032419;28;20090;-77
2022/11/19 13:30:49;;;;;;;16.77;10.70;;;;;;;;;;5020385;28;20033;-77
2022/11/19 13:33:19;;;;;;;17.23;11.10;;;;;;;;;;5017536;28;20037;-77
2022/11/19 13:36:04;;;;;;;15.97;10.27;;;;;;;;;;5020837;28;20455;-77
2022/11/19 13:38:43;;;;;;;17.50;11.13;;;;;;;;;;5018025;28;20454;-77
2022/11/19 13:41:19;;;;;;;18.73;12.03;;;;;;;;;;5031294;28;20372;-76
2022/11/19 13:46:37;;;;;;;16.03;10.47;;;;;;;;;;5019641;28;20045;-77
2022/11/19 13:49:12;;;;;;;16.70;9.90;;;;;;;;;;5018588;28;20127;-77
2022/11/19 13:51:40;;;;;;;18.63;11.43;;;;;;;;;;5030164;28;20033;-77
2022/11/19 13:54:07;;;;;;;17.27;10.10;;;;;;;;;;5019662;28;20030;-77
2022/11/19 13:56:38;;;;;;;15.47;10.20;;;;;;;;;;5019139;28;20033;-77
2022/11/19 13:59:05;;;;;;;15.73;10.53;;;;;;;;;;5018683;28;20033;-76
2022/11/19 14:01:50;;;;;;;15.33;10.73;;;;;;;;;;5033223;28;20029;-77
2022/11/19 14:04:31;;;;;;;16.67;11.60;;;;;;;;;;5016739;28;20029;-77
2022/11/19 14:07:04;;;;;;;17.27;10.53;;;;;;;;;;5018414;28;20030;-77
2022/11/19 14:09:33;;;;;;;26.83;11.83;;;;;;;;;;5018321;28;20026;-77
2022/11/19 14:11:59;;;;;;;17.73;11.00;;;;;;;;;;5029190;28;20458;-77
2022/11/19 14:26:38;;;;;;;16.70;10.70;;;;;;;;;;5019985;28;20036;-77
2022/11/19 14:29:04;;;;;;;17.13;11.47;;;;;;;;;;5016155;28;20026;-77
2022/11/19 14:31:30;;;;;;;14.63;10.27;;;;;;;;;;5018390;28;20112;-75
2022/11/19 14:33:58;;;;;;;15.87;11.00;;;;;;;;;;5018202;28;20915;-77
2022/11/19 14:36:42;;;;;;;15.17;10.70;;;;;;;;;;5017113;28;20109;-77
2022/11/19 14:39:16;;;;;;;17.33;11.57;;;;;;;;;;5031054;28;20029;-77
2022/11/19 14:41:45;;;;;;;17.47;11.00;;;;;;;;;;5017479;28;20087;-76
2022/11/19 14:44:31;;;;;;;17.13;11.37;;;;;;;;;;5019042;28;20025;-77
2022/11/19 14:47:17;;;;;;;21.27;12.70;;;;;;;;;;5018015;28;20037;-76
2022/11/19 14:49:46;;;;;;;26.60;15.03;;;;;;;;;;5025596;28;20463;-77
2022/11/19 14:52:20;;;;;;;18.20;11.50;;;;;;;;;;5018878;28;20037;-76
2022/11/19 14:54:51;;;;;;;16.23;11.37;;;;;;;;;;5013221;28;20041;-77
2022/11/19 14:57:26;;;;;;;14.97;10.50;;;;;;;;;;5017021;28;20026;-77
2022/11/19 14:59:54;;;;;;;17.00;11.20;;;;;;;;;;5009669;28;20096;-77
2022/11/19 15:02:36;;;;;;;16.60;10.53;;;;;;;;;;5015905;28;20029;-77
2022/11/19 15:05:34;;;;;;;17.53;11.23;;;;;;;;;;5028826;28;20044;-76
2022/11/19 15:08:16;;;;;;;18.97;11.87;;;;;;;;;;4992744;28;20041;-77
2022/11/19 15:10:45;;;;;;;42.27;19.83;;;;;;;;;;5017818;28;20034;-77
2022/11/19 15:13:18;;;;;;;56.33;21.90;;;;;;;;;;5031362;28;20030;-77
2022/11/19 15:15:45;;;;;;;57.50;24.00;;;;;;;;;;5032169;28;20037;-76